createdAt,value
2017-07-22T00:00:19.916Z,10.20
2017-07-22T00:02:48.103Z,8.93
2017-07-22T00:05:15.534Z,8.50
2017-07-22T00:07:42.956Z,11.03
2017-07-22T00:10:10.382Z,7.30
2017-07-22T00:12:37.804Z,13.40
2017-07-22T00:15:06.012Z,10.33
2017-07-22T00:17:33.445Z,8.53
2017-07-22T00:20:01.636Z,8.70
2017-07-22T00:22:29.071Z,8.97
2017-07-22T00:24:57.263Z,12.63
2017-07-22T00:27:24.685Z,9.57
2017-07-22T00:29:52.107Z,7.00
2017-07-22T00:32:19.546Z,10.93
2017-07-22T00:34:53.507Z,9.43
2017-07-22T00:37:20.912Z,9.10
2017-07-22T00:39:48.343Z,8.70
2017-07-22T00:42:15.767Z,9.87
2017-07-22T00:44:43.180Z,9.47
2017-07-22T00:47:10.624Z,8.83
2017-07-22T00:49:38.057Z,15.57
2017-07-22T00:52:06.242Z,7.07
2017-07-22T00:54:33.665Z,13.83
2017-07-22T00:57:01.097Z,10.00
2017-07-22T00:59:28.533Z,8.67
2017-07-22T01:01:56.045Z,10.90
2017-07-22T01:04:23.449Z,10.07
2017-07-22T01:06:50.864Z,13.33
2017-07-22T01:09:19.066Z,8.17
2017-07-22T01:11:46.489Z,8.03
2017-07-22T01:14:14.687Z,11.10
2017-07-22T01:16:42.133Z,14.93
2017-07-22T01:19:09.541Z,10.50
2017-07-22T01:21:36.960Z,9.03
2017-07-22T01:24:04.416Z,10.77
2017-07-22T01:26:31.835Z,10.13
2017-07-22T01:29:00.029Z,10.83
2017-07-22T01:31:27.525Z,11.53
2017-07-22T01:33:54.947Z,10.80
2017-07-22T01:36:22.392Z,9.80
2017-07-22T01:38:50.580Z,13.00
2017-07-22T01:41:17.997Z,12.60
2017-07-22T01:43:45.425Z,7.50
2017-07-22T01:46:12.846Z,11.17
2017-07-22T01:48:40.270Z,7.63
2017-07-22T01:51:08.464Z,10.20
2017-07-22T01:53:36.101Z,12.03
2017-07-22T01:56:04.287Z,11.03
2017-07-22T01:58:31.721Z,20.17
2017-07-22T02:00:59.143Z,9.40
2017-07-22T02:03:26.583Z,11.50
2017-07-22T02:05:53.996Z,14.20
2017-07-22T02:08:21.444Z,15.13
2017-07-22T02:10:48.860Z,9.30
2017-07-22T02:13:16.291Z,8.53
2017-07-22T02:15:43.736Z,8.90
2017-07-22T02:18:11.160Z,7.47
2017-07-22T02:20:38.577Z,8.80
2017-07-22T02:23:05.998Z,10.13
2017-07-22T02:25:33.422Z,12.23
2017-07-22T02:28:00.847Z,9.40
2017-07-22T02:30:28.262Z,9.77
2017-07-22T02:32:56.453Z,8.27
2017-07-22T02:35:23.876Z,9.50
2017-07-22T02:37:51.304Z,12.93
2017-07-22T02:40:18.758Z,7.27
2017-07-22T02:42:46.176Z,12.63
2017-07-22T02:45:13.600Z,13.80
2017-07-22T02:47:41.025Z,9.37
2017-07-22T02:50:08.462Z,10.10
2017-07-22T02:52:35.893Z,13.37
2017-07-22T02:55:04.081Z,12.50
2017-07-22T02:57:31.506Z,11.57
2017-07-22T02:59:59.697Z,11.93
2017-07-22T03:02:27.116Z,11.13
2017-07-22T03:04:54.549Z,16.77
2017-07-22T03:07:21.980Z,10.70
2017-07-22T03:09:49.410Z,8.30
2017-07-22T03:12:16.834Z,7.47
2017-07-22T03:14:44.254Z,8.27
2017-07-22T03:17:11.703Z,15.13
2017-07-22T03:19:39.141Z,9.43
2017-07-22T03:22:07.363Z,9.53
2017-07-22T03:24:34.800Z,9.57
2017-07-22T03:27:02.221Z,17.07
2017-07-22T03:29:30.410Z,10.33
2017-07-22T03:31:57.840Z,19.20
2017-07-22T03:34:25.261Z,12.43
2017-07-22T03:36:52.720Z,15.00
2017-07-22T03:39:20.145Z,16.80
2017-07-22T03:41:47.564Z,14.20
2017-07-22T03:44:15.785Z,11.50
2017-07-22T03:46:43.212Z,13.80
2017-07-22T03:49:10.633Z,12.63
2017-07-22T03:51:38.058Z,15.43
2017-07-22T03:54:05.494Z,13.00
2017-07-22T03:56:32.913Z,10.07
2017-07-22T03:59:01.231Z,11.07
2017-07-22T04:01:28.634Z,10.20
2017-07-22T04:03:56.066Z,11.63
2017-07-22T04:06:23.522Z,15.80
2017-07-22T04:08:50.944Z,14.17
2017-07-22T04:11:18.369Z,10.60
2017-07-22T04:13:46.560Z,12.33
2017-07-22T04:16:13.997Z,11.80
2017-07-22T04:18:42.181Z,11.17
2017-07-22T04:21:09.622Z,10.67
2017-07-22T04:23:37.813Z,10.70
2017-07-22T04:26:05.238Z,14.43
2017-07-22T04:28:32.656Z,13.83
2017-07-22T04:31:00.080Z,15.70
2017-07-22T04:33:27.509Z,11.67
2017-07-22T04:35:54.928Z,13.77
2017-07-22T04:38:22.373Z,11.63
2017-07-22T04:40:49.803Z,15.83
2017-07-22T04:43:17.237Z,13.93
2017-07-22T04:45:44.668Z,11.23
2017-07-22T04:48:12.095Z,10.53
2017-07-22T04:50:39.521Z,9.43
2017-07-22T04:53:07.721Z,11.37
2017-07-22T04:55:35.147Z,10.73
2017-07-22T04:58:03.342Z,11.67
2017-07-22T05:00:30.765Z,10.47
2017-07-22T05:02:58.188Z,14.50
2017-07-22T05:05:25.613Z,10.97
2017-07-22T05:07:53.033Z,11.07
2017-07-22T05:10:21.252Z,9.83
2017-07-22T05:12:48.664Z,7.27
2017-07-22T05:15:16.856Z,13.57
2017-07-22T05:17:44.279Z,14.80
2017-07-22T05:20:11.700Z,10.70
2017-07-22T05:22:39.159Z,12.90
2017-07-22T05:25:06.599Z,12.90
2017-07-22T05:27:34.004Z,11.47
2017-07-22T05:30:02.197Z,12.30
2017-07-22T05:32:30.388Z,11.77
2017-07-22T05:34:57.808Z,8.20
2017-07-22T05:37:26.016Z,10.07
2017-07-22T05:39:53.437Z,14.60
2017-07-22T05:42:20.852Z,8.33
2017-07-22T05:44:48.324Z,11.57
2017-07-22T05:47:15.769Z,17.43
2017-07-22T05:49:43.168Z,10.50
2017-07-22T05:52:11.375Z,14.70
2017-07-22T05:54:38.797Z,16.50
2017-07-22T05:57:06.988Z,8.93
2017-07-22T05:59:34.403Z,10.10
2017-07-22T06:02:01.829Z,8.53
2017-07-22T06:04:29.257Z,11.60
2017-07-22T06:06:56.746Z,9.90
2017-07-22T06:09:24.190Z,10.80
2017-07-22T06:11:51.624Z,12.27
2017-07-22T06:14:19.037Z,22.40
2017-07-22T06:16:46.457Z,13.80
2017-07-22T06:19:13.877Z,12.47
2017-07-22T06:21:42.052Z,7.37
2017-07-22T06:24:10.245Z,10.43
2017-07-22T06:26:37.669Z,13.50
2017-07-22T06:29:05.093Z,15.37
2017-07-22T06:31:32.515Z,14.37
2017-07-22T06:33:59.932Z,11.97
2017-07-22T06:36:28.128Z,9.90
2017-07-22T06:38:55.548Z,9.73
2017-07-22T06:41:22.978Z,18.93
2017-07-22T06:43:50.397Z,11.43
2017-07-22T06:46:17.825Z,11.53
2017-07-22T06:48:45.237Z,15.93
2017-07-22T06:51:12.663Z,13.37
2017-07-22T06:53:40.084Z,14.90
2017-07-22T06:56:07.511Z,7.73
2017-07-22T06:58:34.929Z,14.23
2017-07-22T07:01:02.425Z,9.30
2017-07-22T07:03:29.894Z,9.00
2017-07-22T07:05:58.081Z,9.50
2017-07-22T07:08:25.513Z,12.30
2017-07-22T07:10:53.708Z,8.50
2017-07-22T07:13:21.134Z,7.70
2017-07-22T07:15:48.552Z,11.60
2017-07-22T07:18:15.996Z,9.37
2017-07-22T07:20:43.409Z,9.60
2017-07-22T07:23:11.625Z,6.03
2017-07-22T07:25:39.041Z,8.30
2017-07-22T07:28:07.225Z,7.70
2017-07-22T07:30:34.661Z,11.30
2017-07-22T07:33:02.078Z,9.23
2017-07-22T07:35:29.504Z,11.47
2017-07-22T07:37:56.937Z,8.97
2017-07-22T07:40:25.126Z,16.00
2017-07-22T07:42:52.552Z,9.70
2017-07-22T07:45:20.069Z,9.40
2017-07-22T07:47:47.485Z,8.23
2017-07-22T07:50:14.917Z,12.93
2017-07-22T07:52:42.328Z,9.90
2017-07-22T07:55:09.759Z,8.27
2017-07-22T07:57:37.944Z,14.30
2017-07-22T08:00:06.141Z,13.40
2017-07-22T08:02:33.573Z,13.63
2017-07-22T08:05:01.762Z,12.67
2017-07-22T08:07:29.178Z,14.93
2017-07-22T08:09:56.601Z,11.90
2017-07-22T08:12:24.029Z,13.67
2017-07-22T08:14:51.463Z,11.63
2017-07-22T08:17:19.656Z,13.23
2017-07-22T08:19:47.082Z,16.63
2017-07-22T08:22:14.505Z,13.20
2017-07-22T08:24:41.936Z,10.30
2017-07-22T08:27:09.373Z,10.37
2017-07-22T08:29:37.576Z,14.00
2017-07-22T08:32:05.000Z,14.33
2017-07-22T08:34:32.426Z,13.30
2017-07-22T08:37:00.628Z,12.20
2017-07-22T08:39:28.499Z,9.73
2017-07-22T08:41:56.681Z,13.00
2017-07-22T08:44:24.111Z,11.13
2017-07-22T08:46:51.532Z,12.30
2017-07-22T08:49:18.957Z,11.37
2017-07-22T08:51:46.376Z,16.13
2017-07-22T08:54:13.821Z,10.53
2017-07-22T08:56:41.229Z,13.30
2017-07-22T08:59:08.688Z,12.40
2017-07-22T09:01:36.108Z,11.20
2017-07-22T09:04:04.318Z,13.63
2017-07-22T09:06:31.751Z,17.83
2017-07-22T09:09:00.065Z,13.60
2017-07-22T09:11:27.486Z,13.67
2017-07-22T09:13:55.665Z,17.77
2017-07-22T09:16:23.155Z,13.37
2017-07-22T09:18:50.740Z,12.23
2017-07-22T09:21:18.249Z,12.97
2017-07-22T09:23:46.421Z,17.03
2017-07-22T09:26:13.869Z,14.73
2017-07-22T09:28:41.474Z,31.23
2017-07-22T09:31:08.968Z,18.73
2017-07-22T09:33:36.533Z,18.20
2017-07-22T09:36:03.953Z,14.37
2017-07-22T09:38:31.382Z,15.17
2017-07-22T09:40:58.830Z,13.93
2017-07-22T09:43:26.912Z,12.20
2017-07-22T09:45:54.361Z,10.40
2017-07-22T09:48:21.799Z,8.93
2017-07-22T09:50:49.977Z,10.00
2017-07-22T09:53:17.391Z,10.97
2017-07-22T09:55:44.813Z,11.40
2017-07-22T09:58:12.245Z,12.60
2017-07-22T10:00:39.681Z,11.97
2017-07-22T10:03:07.868Z,13.33
2017-07-22T10:05:35.301Z,11.73
2017-07-22T10:08:03.485Z,14.20
2017-07-22T10:10:30.917Z,14.93
2017-07-22T10:12:58.343Z,14.50
2017-07-22T10:15:25.777Z,12.90
2017-07-22T10:17:53.271Z,22.47
2017-07-22T10:20:20.695Z,16.73
2017-07-22T10:22:48.116Z,15.90
2017-07-22T10:25:16.300Z,14.10
2017-07-22T10:27:43.724Z,16.63
2017-07-22T10:30:11.147Z,13.23
2017-07-22T10:32:38.598Z,14.40
2017-07-22T10:35:06.008Z,16.70
2017-07-22T10:37:34.218Z,13.60
2017-07-22T10:40:01.661Z,15.20
2017-07-22T10:42:29.141Z,12.03
2017-07-22T10:44:56.595Z,13.20
2017-07-22T10:47:24.031Z,13.43
2017-07-22T10:49:51.458Z,12.60
2017-07-22T10:52:19.651Z,11.83
2017-07-22T10:54:47.076Z,14.47
2017-07-22T10:57:14.530Z,15.47
2017-07-22T10:59:41.963Z,15.23
2017-07-22T11:02:09.406Z,11.70
2017-07-22T11:04:36.823Z,14.37
2017-07-22T11:07:04.252Z,13.27
2017-07-22T11:09:31.680Z,12.43
2017-07-22T11:11:59.115Z,17.63
2017-07-22T11:14:26.584Z,13.40
2017-07-22T11:16:53.997Z,12.47
2017-07-22T11:19:21.432Z,12.73
2017-07-22T11:21:49.627Z,13.53
2017-07-22T11:24:17.817Z,12.43
2017-07-22T11:26:45.245Z,15.03
2017-07-22T11:29:13.462Z,11.97
2017-07-22T11:31:40.878Z,14.73
2017-07-22T11:34:09.077Z,16.87
2017-07-22T11:36:36.506Z,17.57
2017-07-22T11:39:04.697Z,16.53
2017-07-22T11:41:32.126Z,13.87
2017-07-22T11:44:00.348Z,14.00
2017-07-22T11:46:27.768Z,13.00
2017-07-22T11:48:55.969Z,14.83
2017-07-22T11:51:23.391Z,12.63
2017-07-22T11:53:51.591Z,13.53
2017-07-22T11:56:19.008Z,13.37
2017-07-22T11:58:46.452Z,13.23
2017-07-22T12:01:13.870Z,12.63
2017-07-22T12:03:41.295Z,11.43
2017-07-22T12:06:09.526Z,12.00
2017-07-22T12:08:36.953Z,9.63
2017-07-22T12:11:04.368Z,9.20
2017-07-22T12:13:32.564Z,9.00
2017-07-22T12:16:00.750Z,12.53
2017-07-22T12:18:28.182Z,11.30
2017-07-22T12:20:56.378Z,11.17
2017-07-22T12:23:23.793Z,11.13
2017-07-22T12:25:51.994Z,14.27
2017-07-22T12:28:19.425Z,13.70
2017-07-22T12:30:46.851Z,10.73
2017-07-22T12:33:14.330Z,12.30
2017-07-22T12:35:41.770Z,11.30
2017-07-22T12:38:09.215Z,10.10
2017-07-22T12:40:36.650Z,16.63
2017-07-22T12:43:04.866Z,12.50
2017-07-22T12:45:32.296Z,11.30
2017-07-22T12:47:59.728Z,13.47
2017-07-22T12:50:27.933Z,11.67
2017-07-22T12:52:55.416Z,15.63
2017-07-22T12:55:22.874Z,11.97
2017-07-22T12:57:50.329Z,11.70
2017-07-22T13:00:17.761Z,12.87
2017-07-22T13:02:45.193Z,12.90
2017-07-22T13:05:12.619Z,13.73
2017-07-22T13:07:40.046Z,13.90
2017-07-22T13:10:07.476Z,11.07
2017-07-22T13:12:34.914Z,12.40
2017-07-22T13:15:03.130Z,10.17
2017-07-22T13:17:30.594Z,10.90
2017-07-22T13:19:58.013Z,10.33
2017-07-22T13:22:25.441Z,14.47
2017-07-22T13:24:52.888Z,8.90
2017-07-22T13:27:20.409Z,8.30
2017-07-22T13:29:47.950Z,11.17
2017-07-22T13:32:15.369Z,8.80
2017-07-22T13:34:43.594Z,16.57
2017-07-22T13:37:11.000Z,8.30
2017-07-22T13:39:38.426Z,8.20
2017-07-22T13:42:05.971Z,8.90
2017-07-22T13:44:33.397Z,10.30
2017-07-22T13:47:00.821Z,13.87
2017-07-22T13:49:28.256Z,8.40
2017-07-22T13:51:56.450Z,9.90
2017-07-22T13:54:23.925Z,9.40
2017-07-22T13:56:51.328Z,8.73
2017-07-22T13:59:18.847Z,12.23
2017-07-22T14:01:46.300Z,9.27
2017-07-22T14:04:13.727Z,7.90
2017-07-22T14:06:41.156Z,11.03
2017-07-22T14:09:08.600Z,9.00
2017-07-22T14:11:36.057Z,7.97
2017-07-22T14:14:03.492Z,10.20
2017-07-22T14:16:30.942Z,9.00
2017-07-22T14:18:58.371Z,8.60
2017-07-22T14:21:25.787Z,7.30
2017-07-22T14:23:53.233Z,10.63
2017-07-22T14:26:20.641Z,7.00
2017-07-22T14:28:48.078Z,8.70
2017-07-22T14:31:16.291Z,10.07
2017-07-22T14:33:43.704Z,6.63
2017-07-22T14:36:11.124Z,6.57
2017-07-22T14:38:38.542Z,6.60
2017-07-22T14:41:05.976Z,6.83
2017-07-22T14:43:33.396Z,11.27
2017-07-22T14:46:00.913Z,9.60
2017-07-22T14:48:28.328Z,8.97
2017-07-22T14:50:56.520Z,7.50
2017-07-22T14:53:23.945Z,9.03
2017-07-22T14:55:51.388Z,7.53
2017-07-22T14:58:18.810Z,8.57
2017-07-22T15:00:46.247Z,6.60
2017-07-22T15:03:13.677Z,6.43
2017-07-22T15:05:41.905Z,6.40
2017-07-22T15:08:09.361Z,8.33
2017-07-22T15:10:36.790Z,9.40
2017-07-22T15:13:04.200Z,8.60
2017-07-22T15:15:31.744Z,6.90
2017-07-22T15:17:59.182Z,6.50
2017-07-22T15:20:26.597Z,8.03
2017-07-22T15:22:54.792Z,11.50
2017-07-22T15:25:22.206Z,9.83
2017-07-22T15:27:49.623Z,6.57
2017-07-22T15:30:17.079Z,6.13
2017-07-22T15:32:44.530Z,10.40
2017-07-22T15:35:11.944Z,6.43
2017-07-22T15:37:40.137Z,9.47
2017-07-22T15:40:07.572Z,6.80
2017-07-22T15:42:35.756Z,7.20
2017-07-22T15:45:03.170Z,7.70
2017-07-22T15:47:30.621Z,7.93
2017-07-22T15:49:58.050Z,7.13
2017-07-22T15:52:25.447Z,7.60
2017-07-22T15:54:52.876Z,6.17
2017-07-22T15:57:20.325Z,11.43
2017-07-22T15:59:47.731Z,6.17
2017-07-22T16:02:15.151Z,7.90
2017-07-22T16:04:42.627Z,7.33
2017-07-22T16:07:10.046Z,8.10
2017-07-22T16:09:37.467Z,6.67
2017-07-22T16:12:05.675Z,7.30
2017-07-22T16:14:33.088Z,6.03
2017-07-22T16:17:00.527Z,9.80
2017-07-22T16:19:27.953Z,6.37
2017-07-22T16:21:55.378Z,7.57
2017-07-22T16:24:22.910Z,14.63
2017-07-22T16:26:51.099Z,7.27
2017-07-22T16:29:18.520Z,8.33
2017-07-22T16:31:46.044Z,9.23
2017-07-22T16:34:13.492Z,8.93
2017-07-22T16:36:41.009Z,8.70
2017-07-22T16:39:08.525Z,8.20
2017-07-22T16:41:35.931Z,10.90
2017-07-22T16:44:04.142Z,8.00
2017-07-22T16:46:31.543Z,18.70
2017-07-22T16:48:59.732Z,8.20
2017-07-22T16:51:27.948Z,12.53
2017-07-22T16:53:55.352Z,11.47
2017-07-22T16:56:23.543Z,8.57
2017-07-22T16:58:50.964Z,9.00
2017-07-22T17:01:18.386Z,10.33
2017-07-22T17:03:45.814Z,8.90
2017-07-22T17:06:13.237Z,9.30
2017-07-22T17:08:40.683Z,9.90
2017-07-22T17:11:08.109Z,13.03
2017-07-22T17:13:35.538Z,10.80
2017-07-22T17:16:02.986Z,12.20
2017-07-22T17:18:31.178Z,13.13
2017-07-22T17:20:58.614Z,13.70
2017-07-22T17:23:26.837Z,14.23
2017-07-22T17:25:54.279Z,11.33
2017-07-22T17:28:21.701Z,13.63
2017-07-22T17:30:49.140Z,12.77
2017-07-22T17:33:16.563Z,25.17
2017-07-22T17:35:43.980Z,15.27
2017-07-22T17:38:11.434Z,13.30
2017-07-22T17:40:38.852Z,13.50
2017-07-22T17:43:06.284Z,11.27
2017-07-22T17:45:33.721Z,12.07
2017-07-22T17:48:01.148Z,15.13
2017-07-22T17:50:28.580Z,13.23
2017-07-22T17:52:56.010Z,13.93
2017-07-22T17:55:23.477Z,20.50
2017-07-22T17:57:51.004Z,14.40
2017-07-22T18:00:18.453Z,16.03
2017-07-22T18:02:46.025Z,14.30
2017-07-22T18:05:13.449Z,20.43
2017-07-22T18:07:40.900Z,15.30
2017-07-22T18:10:08.361Z,14.60
2017-07-22T18:12:35.792Z,20.03
2017-07-22T18:15:03.216Z,17.33
2017-07-22T18:17:31.412Z,14.60
2017-07-22T18:19:58.844Z,15.03
2017-07-22T18:22:26.269Z,17.87
2017-07-22T18:24:53.708Z,15.50
2017-07-22T18:27:21.138Z,14.90
2017-07-22T18:29:48.566Z,13.67
2017-07-22T18:32:15.995Z,14.97
2017-07-22T18:34:43.453Z,14.63
2017-07-22T18:37:10.903Z,20.70
2017-07-22T18:39:38.348Z,17.17
2017-07-22T18:42:05.801Z,15.00
2017-07-22T18:44:33.243Z,16.80
2017-07-22T18:47:00.661Z,16.27
2017-07-22T18:49:28.858Z,16.43
2017-07-22T18:51:56.280Z,20.47
2017-07-22T18:54:23.726Z,17.83
2017-07-22T18:56:51.162Z,17.73
2017-07-22T18:59:18.598Z,19.23
2017-07-22T19:01:46.026Z,21.47
2017-07-22T19:04:13.450Z,24.67
2017-07-22T19:06:40.885Z,18.57
2017-07-22T19:09:08.357Z,19.93
2017-07-22T19:11:35.787Z,20.70
2017-07-22T19:14:03.222Z,21.53
2017-07-22T19:16:30.669Z,22.23
2017-07-22T19:18:58.101Z,26.47
2017-07-22T19:21:26.294Z,23.53
2017-07-22T19:23:53.744Z,27.50
2017-07-22T19:26:21.942Z,22.50
2017-07-22T19:28:49.370Z,22.53
2017-07-22T19:31:16.820Z,19.80
2017-07-22T19:33:44.254Z,24.90
2017-07-22T19:36:11.684Z,24.93
2017-07-22T19:38:39.132Z,26.83
2017-07-22T19:41:06.854Z,23.90
2017-07-22T19:43:35.082Z,24.40
2017-07-22T19:46:02.513Z,27.33
2017-07-22T19:48:29.940Z,24.17
2017-07-22T19:50:58.156Z,24.70
2017-07-22T19:53:26.019Z,27.23
2017-07-22T19:55:53.443Z,32.77
2017-07-22T19:58:20.884Z,25.87
2017-07-22T20:00:49.090Z,29.53
2017-07-22T20:03:16.544Z,27.20
2017-07-22T20:05:43.965Z,29.67
2017-07-22T20:08:12.165Z,32.23
2017-07-22T20:10:39.605Z,28.07
2017-07-22T20:13:07.827Z,28.70
2017-07-22T20:15:35.290Z,27.13
2017-07-22T20:18:02.763Z,28.43
2017-07-22T20:20:30.197Z,30.43
2017-07-22T20:22:57.621Z,30.97
2017-07-22T20:25:25.501Z,27.00
2017-07-22T20:27:53.040Z,29.30
2017-07-22T20:30:20.477Z,37.87
2017-07-22T20:32:48.727Z,29.63
2017-07-22T20:35:16.175Z,26.60
2017-07-22T20:37:43.613Z,29.67
2017-07-22T20:40:11.042Z,28.60
2017-07-22T20:42:38.477Z,28.63
2017-07-22T20:45:06.674Z,28.53
2017-07-22T20:47:34.109Z,27.83
2017-07-22T20:50:02.313Z,30.20
2017-07-22T20:52:29.750Z,28.73
2017-07-22T20:54:57.940Z,30.30
2017-07-22T20:57:25.378Z,31.20
2017-07-22T20:59:53.573Z,29.87
2017-07-22T21:02:21.219Z,31.17
2017-07-22T21:04:48.702Z,30.80
2017-07-22T21:07:16.493Z,28.60
2017-07-22T21:09:44.215Z,31.23
2017-07-22T21:12:11.644Z,34.43
2017-07-22T21:14:40.100Z,35.53
2017-07-22T21:17:07.769Z,30.60
2017-07-22T21:19:35.406Z,28.63
2017-07-22T21:22:03.369Z,32.20
2017-07-22T21:24:33.201Z,33.37
2017-07-22T21:27:00.900Z,29.87
2017-07-22T21:29:28.637Z,31.57
2017-07-22T21:31:57.755Z,30.10
2017-07-22T21:34:25.511Z,35.20
2017-07-22T21:36:53.282Z,34.97
2017-07-22T21:39:21.693Z,28.87
2017-07-22T21:41:49.124Z,32.63
2017-07-22T21:44:16.595Z,33.43
2017-07-22T21:46:44.033Z,33.40
2017-07-22T21:49:11.481Z,32.10
2017-07-22T21:51:38.899Z,27.93
2017-07-22T21:54:06.328Z,29.40
2017-07-22T21:56:33.784Z,29.00
2017-07-22T21:59:01.993Z,29.53
2017-07-22T22:01:29.427Z,32.57
2017-07-22T22:03:57.636Z,28.53
2017-07-22T22:06:25.193Z,26.00
2017-07-22T22:08:52.714Z,32.53
2017-07-22T22:11:20.192Z,26.10
2017-07-22T22:13:47.640Z,29.73
2017-07-22T22:16:15.074Z,27.60
2017-07-22T22:18:42.501Z,24.40
2017-07-22T22:21:09.949Z,29.10
2017-07-22T22:23:37.459Z,28.10
2017-07-22T22:26:05.657Z,25.93
2017-07-22T22:28:33.134Z,30.63
2017-07-22T22:31:00.545Z,29.73
2017-07-22T22:33:27.987Z,29.33
2017-07-22T22:35:56.226Z,30.47
2017-07-22T22:38:23.641Z,29.90
2017-07-22T22:40:51.087Z,30.30
2017-07-22T22:43:18.576Z,26.43
2017-07-22T22:45:46.048Z,32.40
2017-07-22T22:48:13.481Z,29.77
2017-07-22T22:50:40.943Z,31.07
2017-07-22T22:53:08.367Z,29.00
2017-07-22T22:55:36.553Z,27.60
2017-07-22T22:58:03.988Z,29.63
2017-07-22T23:00:32.196Z,25.80
2017-07-22T23:02:59.617Z,27.50
2017-07-22T23:05:27.820Z,35.90
2017-07-22T23:07:55.342Z,29.23
2017-07-22T23:10:23.549Z,25.13
2017-07-22T23:12:50.976Z,31.13
2017-07-22T23:15:19.185Z,27.30
2017-07-22T23:17:46.607Z,29.60
2017-07-22T23:20:14.805Z,29.57
2017-07-22T23:22:42.246Z,29.00
2017-07-22T23:25:10.461Z,34.20
2017-07-22T23:27:38.683Z,27.73
2017-07-22T23:30:06.882Z,31.87
2017-07-22T23:32:34.318Z,29.80
2017-07-22T23:35:02.531Z,28.00
2017-07-22T23:37:29.950Z,33.63
2017-07-22T23:40:19.485Z,29.90
2017-07-22T23:42:46.904Z,28.50
2017-07-22T23:45:14.332Z,28.80
2017-07-22T23:47:41.753Z,30.93
2017-07-22T23:50:09.178Z,43.20
2017-07-22T23:52:36.616Z,32.87
2017-07-22T23:55:04.058Z,33.90
2017-07-22T23:57:32.265Z,30.07
2017-07-22T23:59:59.690Z,35.70
